createdAt,value
2018-01-06T00:00:08.880Z,80.80
2018-01-06T00:02:39.028Z,81.50
2018-01-06T00:05:06.670Z,81.30
2018-01-06T00:07:35.802Z,81.30
2018-01-06T00:10:03.399Z,81.30
2018-01-06T00:12:31.882Z,81.80
2018-01-06T00:14:59.495Z,81.90
2018-01-06T00:17:27.577Z,82.20
2018-01-06T00:19:55.136Z,82.00
2018-01-06T00:22:23.089Z,82.10
2018-01-06T00:24:50.737Z,82.20
2018-01-06T00:27:18.476Z,82.50
2018-01-06T00:29:46.992Z,82.60
2018-01-06T00:32:14.581Z,82.50
2018-01-06T00:34:43.081Z,82.10
2018-01-06T00:37:10.673Z,82.10
2018-01-06T00:39:38.193Z,81.90
2018-01-06T00:42:07.234Z,81.70
2018-01-06T00:44:34.732Z,81.60
2018-01-06T00:47:03.042Z,81.00
2018-01-06T00:49:31.994Z,80.70
2018-01-06T00:51:59.491Z,80.60
2018-01-06T00:54:27.801Z,80.20
2018-01-06T00:56:55.398Z,80.20
2018-01-06T00:59:22.914Z,80.40
2018-01-06T01:01:50.451Z,79.90
2018-01-06T01:04:18.728Z,79.60
2018-01-06T01:06:46.348Z,79.50
2018-01-06T01:09:13.917Z,79.40
2018-01-06T01:11:41.448Z,79.50
2018-01-06T01:14:09.756Z,79.50
2018-01-06T01:16:37.921Z,79.50
2018-01-06T01:19:05.571Z,79.50
2018-01-06T01:21:34.509Z,79.30
2018-01-06T01:24:02.779Z,79.10
2018-01-06T01:26:30.373Z,79.10
2018-01-06T01:28:58.729Z,79.30
2018-01-06T01:31:26.316Z,79.40
2018-01-06T01:33:53.846Z,79.40
2018-01-06T01:36:21.436Z,79.60
2018-01-06T01:38:48.946Z,79.90
2018-01-06T01:41:17.456Z,79.90
2018-01-06T01:43:45.002Z,79.90
2018-01-06T01:46:13.382Z,79.40
2018-01-06T01:48:41.761Z,79.20
2018-01-06T01:51:09.379Z,79.10
2018-01-06T01:53:37.127Z,78.80
2018-01-06T01:56:04.756Z,78.80
2018-01-06T01:58:33.142Z,79.30
2018-01-06T02:01:00.658Z,79.30
2018-01-06T02:03:28.233Z,79.10
2018-01-06T02:05:55.780Z,79.10
2018-01-06T02:08:23.390Z,79.50
2018-01-06T02:10:51.041Z,79.70
2018-01-06T02:13:19.818Z,79.50
2018-01-06T02:15:48.582Z,79.20
2018-01-06T02:18:16.916Z,78.80
2018-01-06T02:20:44.470Z,78.90
2018-01-06T02:23:12.102Z,78.40
2018-01-06T02:25:39.661Z,78.20
2018-01-06T02:28:07.283Z,78.50
2018-01-06T02:30:35.636Z,78.60
2018-01-06T02:33:03.160Z,78.60
2018-01-06T02:35:30.802Z,78.50
2018-01-06T02:37:59.131Z,78.20
2018-01-06T02:40:26.642Z,78.50
2018-01-06T02:42:54.876Z,78.10
2018-01-06T02:45:22.509Z,77.90
2018-01-06T02:47:50.832Z,78.10
2018-01-06T02:50:18.333Z,78.10
2018-01-06T02:52:46.705Z,78.60
2018-01-06T02:55:14.949Z,78.60
2018-01-06T02:57:43.130Z,79.00
2018-01-06T03:00:10.768Z,79.60
2018-01-06T03:02:38.276Z,79.70
2018-01-06T03:05:05.948Z,79.80
2018-01-06T03:07:33.572Z,79.70
2018-01-06T03:10:01.096Z,80.20
2018-01-06T03:12:28.727Z,80.50
2018-01-06T03:14:56.482Z,80.60
2018-01-06T03:17:24.914Z,80.50
2018-01-06T03:19:53.216Z,80.70
2018-01-06T03:22:21.229Z,80.70
2018-01-06T03:24:48.780Z,81.20
2018-01-06T03:27:16.326Z,81.30
2018-01-06T03:29:43.913Z,81.30
2018-01-06T03:32:11.555Z,81.30
2018-01-06T03:34:40.140Z,81.60
2018-01-06T03:37:09.109Z,80.70
2018-01-06T03:39:37.411Z,80.70
2018-01-06T03:42:05.720Z,80.70
2018-01-06T03:44:33.968Z,80.70
2018-01-06T03:47:02.312Z,80.90
2018-01-06T03:49:29.988Z,80.90
2018-01-06T03:51:57.536Z,80.90
2018-01-06T03:54:25.222Z,80.80
2018-01-06T03:56:53.513Z,81.50
2018-01-06T03:59:21.775Z,81.50
2018-01-06T04:01:49.491Z,81.70
2018-01-06T04:04:17.815Z,82.00
2018-01-06T04:06:45.400Z,82.00
2018-01-06T04:09:14.464Z,82.40
2018-01-06T04:11:42.008Z,82.40
2018-01-06T04:14:09.594Z,82.50
2018-01-06T04:16:37.130Z,82.40
2018-01-06T04:19:05.445Z,82.50
2018-01-06T04:21:33.038Z,82.40
2018-01-06T04:24:01.354Z,82.60
2018-01-06T04:26:29.564Z,82.60
2018-01-06T04:28:57.244Z,82.60
2018-01-06T04:31:24.767Z,82.70
2018-01-06T04:33:52.281Z,83.00
2018-01-06T04:36:19.790Z,82.60
2018-01-06T04:38:48.069Z,83.10
2018-01-06T04:41:16.350Z,82.80
2018-01-06T04:43:43.880Z,82.80
2018-01-06T04:46:11.396Z,82.70
2018-01-06T04:48:39.036Z,83.10
2018-01-06T04:51:06.566Z,82.50
2018-01-06T04:53:35.038Z,82.50
2018-01-06T04:56:02.576Z,82.70
2018-01-06T04:58:30.210Z,82.90
2018-01-06T05:00:58.526Z,83.10
2018-01-06T05:03:26.068Z,83.10
2018-01-06T05:05:53.657Z,83.00
2018-01-06T05:08:21.308Z,83.00
2018-01-06T05:10:49.100Z,83.00
2018-01-06T05:13:16.643Z,83.00
2018-01-06T05:15:44.169Z,82.90
2018-01-06T05:18:12.452Z,82.20
2018-01-06T05:20:40.016Z,82.30
2018-01-06T05:23:08.385Z,81.60
2018-01-06T05:25:36.826Z,81.60
2018-01-06T05:28:05.336Z,81.20
2018-01-06T05:30:33.052Z,80.90
2018-01-06T05:33:01.350Z,80.90
2018-01-06T05:35:30.211Z,80.90
2018-01-06T05:37:57.735Z,81.20
2018-01-06T05:40:25.330Z,81.40
2018-01-06T05:42:53.010Z,81.70
2018-01-06T05:45:21.302Z,82.10
2018-01-06T05:47:49.560Z,81.80
2018-01-06T05:50:18.595Z,82.00
2018-01-06T05:52:46.121Z,82.00
2018-01-06T05:55:13.770Z,82.30
2018-01-06T05:57:41.304Z,82.70
2018-01-06T06:00:08.889Z,82.90
2018-01-06T06:02:37.155Z,83.00
2018-01-06T06:05:05.451Z,83.10
2018-01-06T06:07:33.016Z,83.60
2018-01-06T06:10:00.562Z,83.00
2018-01-06T06:12:28.908Z,82.90
2018-01-06T06:14:56.448Z,82.90
2018-01-06T06:17:24.025Z,83.30
2018-01-06T06:19:52.321Z,83.00
2018-01-06T06:22:21.307Z,83.00
2018-01-06T06:24:49.360Z,82.90
2018-01-06T06:27:17.750Z,83.20
2018-01-06T06:29:46.671Z,83.20
2018-01-06T06:32:14.981Z,83.10
2018-01-06T06:34:43.229Z,83.00
2018-01-06T06:37:11.552Z,82.90
2018-01-06T06:39:39.863Z,82.90
2018-01-06T06:42:07.461Z,82.80
2018-01-06T06:44:35.740Z,83.00
2018-01-06T06:47:04.075Z,82.90
2018-01-06T06:49:32.238Z,82.90
2018-01-06T06:52:00.820Z,83.10
2018-01-06T06:54:28.310Z,83.20
2018-01-06T06:56:57.436Z,82.80
2018-01-06T06:59:25.137Z,82.50
2018-01-06T07:01:52.746Z,82.40
2018-01-06T07:04:21.366Z,82.40
2018-01-06T07:06:49.047Z,82.50
2018-01-06T07:09:16.616Z,82.60
2018-01-06T07:11:44.938Z,82.20
2018-01-06T07:14:12.625Z,82.20
2018-01-06T07:16:40.157Z,82.20
2018-01-06T07:19:09.031Z,82.40
2018-01-06T07:21:36.617Z,82.20
2018-01-06T07:24:04.228Z,82.50
2018-01-06T07:26:31.811Z,82.60
2018-01-06T07:29:00.112Z,82.40
2018-01-06T07:31:27.668Z,82.40
2018-01-06T07:33:55.212Z,82.00
2018-01-06T07:36:22.749Z,81.90
2018-01-06T07:38:50.412Z,81.60
2018-01-06T07:41:17.996Z,81.40
2018-01-06T07:43:45.508Z,81.50
2018-01-06T07:46:13.049Z,81.80
2018-01-06T07:48:41.384Z,81.70
2018-01-06T07:51:08.913Z,81.70
2018-01-06T07:53:36.537Z,81.40
2018-01-06T07:56:04.119Z,81.40
2018-01-06T07:58:32.388Z,80.90
2018-01-06T08:01:00.461Z,80.90
2018-01-06T08:03:28.186Z,80.70
2018-01-06T08:05:55.705Z,80.80
2018-01-06T08:08:24.032Z,80.20
2018-01-06T08:10:52.292Z,80.20
2018-01-06T08:13:19.865Z,80.10
2018-01-06T08:15:49.170Z,79.50
2018-01-06T08:18:16.769Z,79.50
2018-01-06T08:20:44.792Z,79.80
2018-01-06T08:23:12.537Z,79.80
2018-01-06T08:25:40.513Z,79.60
2018-01-06T08:28:08.841Z,79.10
2018-01-06T08:30:36.438Z,79.10
2018-01-06T08:33:04.172Z,78.80
2018-01-06T08:35:32.719Z,78.60
2018-01-06T08:38:01.217Z,78.60
2018-01-06T08:40:29.608Z,78.50
2018-01-06T08:42:57.389Z,78.50
2018-01-06T08:45:24.912Z,78.20
2018-01-06T08:47:52.516Z,78.20
2018-01-06T08:50:21.941Z,78.20
2018-01-06T08:52:49.661Z,78.20
2018-01-06T08:55:17.726Z,77.70
2018-01-06T08:57:45.272Z,78.20
2018-01-06T09:00:15.509Z,77.50
2018-01-06T09:02:43.195Z,77.10
2018-01-06T09:05:11.540Z,76.50
2018-01-06T09:07:40.837Z,76.50
2018-01-06T09:10:09.246Z,76.30
2018-01-06T09:12:36.835Z,76.40
2018-01-06T09:15:06.728Z,76.10
2018-01-06T09:17:34.475Z,76.00
2018-01-06T09:20:02.347Z,75.90
2018-01-06T09:22:30.035Z,75.60
2018-01-06T09:24:59.228Z,75.60
2018-01-06T09:27:27.572Z,75.70
2018-01-06T09:29:55.162Z,75.00
2018-01-06T09:32:22.824Z,74.60
2018-01-06T09:34:50.416Z,74.20
2018-01-06T09:37:18.017Z,73.60
2018-01-06T09:39:46.498Z,73.50
2018-01-06T09:42:14.043Z,73.30
2018-01-06T09:44:42.466Z,73.20
2018-01-06T09:47:10.084Z,73.20
2018-01-06T09:49:37.703Z,73.20
2018-01-06T09:52:05.302Z,73.50
2018-01-06T09:54:32.869Z,73.60
2018-01-06T09:57:00.457Z,73.30
2018-01-06T09:59:28.049Z,73.10
2018-01-06T10:01:56.348Z,72.90
2018-01-06T10:04:23.913Z,72.90
2018-01-06T10:06:51.470Z,72.90
2018-01-06T10:09:19.065Z,73.10
2018-01-06T10:11:46.588Z,73.00
2018-01-06T10:14:17.420Z,73.30
2018-01-06T10:16:46.293Z,73.30
2018-01-06T10:19:14.824Z,73.70
2018-01-06T10:21:44.965Z,73.70
2018-01-06T10:24:12.607Z,73.40
2018-01-06T10:26:40.202Z,73.50
2018-01-06T10:29:09.336Z,73.20
2018-01-06T10:31:36.861Z,73.50
2018-01-06T10:34:04.486Z,73.40
2018-01-06T10:36:32.703Z,73.30
2018-01-06T10:39:01.131Z,73.40
2018-01-06T10:41:29.475Z,72.30
2018-01-06T10:43:57.092Z,72.20
2018-01-06T10:46:26.796Z,72.10
2018-01-06T10:48:55.108Z,72.00
2018-01-06T10:51:22.671Z,72.00
2018-01-06T10:53:50.263Z,71.90
2018-01-06T10:56:18.187Z,71.80
2018-01-06T10:58:48.730Z,70.70
2018-01-06T11:01:22.051Z,70.70
2018-01-06T11:03:50.269Z,70.00
2018-01-06T11:06:18.556Z,69.70
2018-01-06T11:08:46.264Z,69.70
2018-01-06T11:11:13.858Z,69.80
2018-01-06T11:13:42.478Z,70.10
2018-01-06T11:16:10.800Z,69.90
2018-01-06T11:18:38.529Z,69.80
2018-01-06T11:21:06.177Z,70.00
2018-01-06T11:23:33.714Z,70.30
2018-01-06T11:26:01.257Z,70.60
2018-01-06T11:28:28.861Z,70.50
2018-01-06T11:30:56.410Z,70.10
2018-01-06T11:33:23.968Z,70.00
2018-01-06T11:35:51.556Z,70.10
2018-01-06T11:38:20.121Z,71.00
2018-01-06T11:40:47.824Z,70.50
2018-01-06T11:43:15.364Z,70.50
2018-01-06T11:45:43.006Z,70.10
2018-01-06T11:48:10.544Z,70.40
2018-01-06T11:50:38.863Z,69.00
2018-01-06T11:53:06.400Z,69.00
2018-01-06T11:55:34.725Z,68.60
2018-01-06T11:58:02.344Z,68.60
2018-01-06T12:00:31.815Z,69.20
2018-01-06T12:03:00.878Z,69.40
2018-01-06T12:05:28.945Z,69.40
2018-01-06T12:07:58.597Z,69.70
2018-01-06T12:10:26.726Z,69.60
2018-01-06T12:12:54.279Z,69.30
2018-01-06T12:15:21.867Z,69.20
2018-01-06T12:17:49.844Z,69.00
2018-01-06T12:20:17.441Z,69.00
2018-01-06T12:22:45.194Z,69.00
2018-01-06T12:25:14.125Z,69.40
2018-01-06T12:27:41.860Z,69.90
2018-01-06T12:30:09.361Z,69.60
2018-01-06T12:32:37.687Z,71.00
2018-01-06T12:35:05.387Z,70.30
2018-01-06T12:37:32.909Z,70.30
2018-01-06T12:40:01.246Z,69.80
2018-01-06T12:42:29.009Z,69.90
2018-01-06T12:44:57.766Z,69.50
2018-01-06T12:47:25.290Z,69.10
2018-01-06T12:49:53.577Z,69.20
2018-01-06T12:52:22.705Z,69.10
2018-01-06T12:54:50.204Z,69.10
2018-01-06T12:57:18.129Z,68.30
2018-01-06T12:59:45.720Z,68.50
2018-01-06T13:02:14.072Z,68.50
2018-01-06T13:04:41.748Z,68.10
2018-01-06T13:07:10.230Z,68.00
2018-01-06T13:09:38.582Z,67.60
2018-01-06T13:12:07.537Z,67.40
2018-01-06T13:14:35.914Z,67.40
2018-01-06T13:17:03.469Z,67.30
2018-01-06T13:19:31.150Z,67.00
2018-01-06T13:21:58.695Z,66.80
2018-01-06T13:24:26.920Z,66.60
2018-01-06T13:26:55.176Z,66.20
2018-01-06T13:29:22.707Z,66.30
2018-01-06T13:31:50.195Z,66.00
2018-01-06T13:34:17.738Z,65.50
2018-01-06T13:36:46.920Z,65.90
2018-01-06T13:39:15.229Z,65.80
2018-01-06T13:41:42.742Z,65.70
2018-01-06T13:44:11.163Z,65.80
2018-01-06T13:46:38.685Z,66.00
2018-01-06T13:49:06.226Z,66.20
2018-01-06T13:51:33.739Z,66.30
2018-01-06T13:54:02.143Z,66.50
2018-01-06T13:56:29.689Z,66.40
2018-01-06T13:58:57.342Z,66.30
2018-01-06T14:01:25.615Z,65.90
2018-01-06T14:03:53.733Z,65.90
2018-01-06T14:06:22.640Z,65.70
2018-01-06T14:08:51.459Z,65.60
2018-01-06T14:11:19.116Z,66.10
2018-01-06T14:13:46.752Z,66.00
2018-01-06T14:16:14.589Z,65.90
2018-01-06T14:18:42.576Z,65.50
2018-01-06T14:21:11.620Z,65.60
2018-01-06T14:23:39.246Z,65.60
2018-01-06T14:26:07.215Z,65.50
2018-01-06T14:28:35.517Z,65.70
2018-01-06T14:31:03.000Z,65.70
2018-01-06T14:33:30.554Z,65.90
2018-01-06T14:35:58.095Z,66.50
2018-01-06T14:38:25.617Z,66.60
2018-01-06T14:40:53.091Z,67.00
2018-01-06T14:43:21.346Z,66.40
2018-01-06T14:45:48.841Z,66.40
2018-01-06T14:48:17.117Z,66.00
2018-01-06T14:50:45.385Z,66.20
2018-01-06T14:53:12.900Z,66.20
2018-01-06T14:55:40.403Z,66.40
2018-01-06T14:58:07.881Z,66.30
2018-01-06T15:00:35.373Z,66.50
2018-01-06T15:03:03.497Z,66.60
2018-01-06T15:05:31.714Z,66.70
2018-01-06T15:07:59.965Z,67.10
2018-01-06T15:10:28.694Z,67.00
2018-01-06T15:12:57.014Z,67.40
2018-01-06T15:15:25.338Z,67.40
2018-01-06T15:17:53.623Z,67.70
2018-01-06T15:20:21.887Z,67.50
2018-01-06T15:22:49.377Z,67.40
2018-01-06T15:25:17.672Z,67.20
2018-01-06T15:27:45.858Z,67.20
2018-01-06T15:30:13.412Z,67.30
2018-01-06T15:32:41.714Z,67.60
2018-01-06T15:35:09.231Z,67.60
2018-01-06T15:37:37.742Z,68.00
2018-01-06T15:40:05.304Z,68.00
2018-01-06T15:42:32.832Z,68.00
2018-01-06T15:45:00.419Z,68.30
2018-01-06T15:47:28.705Z,68.00
2018-01-06T15:49:56.229Z,68.60
2018-01-06T15:52:23.730Z,68.00
2018-01-06T15:54:51.269Z,68.30
2018-01-06T15:57:18.771Z,68.00
2018-01-06T15:59:46.304Z,67.90
2018-01-06T16:02:14.587Z,68.40
2018-01-06T16:04:42.152Z,68.30
2018-01-06T16:07:10.431Z,68.10
2018-01-06T16:09:38.714Z,68.30
2018-01-06T16:12:07.035Z,68.00
2018-01-06T16:14:34.575Z,68.00
2018-01-06T16:17:02.267Z,67.90
2018-01-06T16:19:31.161Z,67.90
2018-01-06T16:21:58.658Z,68.10
2018-01-06T16:24:26.153Z,67.90
2018-01-06T16:26:54.544Z,68.10
2018-01-06T16:29:22.803Z,68.30
2018-01-06T16:31:51.208Z,68.20
2018-01-06T16:34:19.640Z,67.90
2018-01-06T16:36:47.496Z,67.90
2018-01-06T16:39:14.725Z,67.80
2018-01-06T16:41:42.234Z,68.00
2018-01-06T16:44:10.152Z,68.10
2018-01-06T16:46:38.465Z,68.30
2018-01-06T16:49:06.625Z,68.50
2018-01-06T16:51:34.521Z,68.60
2018-01-06T16:54:02.037Z,68.10
2018-01-06T16:56:30.589Z,68.10
2018-01-06T16:58:58.228Z,68.10
2018-01-06T17:01:25.978Z,68.10
2018-01-06T17:03:55.069Z,68.50
2018-01-06T17:06:23.376Z,68.80
2018-01-06T17:08:51.503Z,68.80
2018-01-06T17:11:19.300Z,68.70
2018-01-06T17:13:48.784Z,68.90
2018-01-06T17:16:16.326Z,68.90
2018-01-06T17:18:43.849Z,69.70
2018-01-06T17:21:12.143Z,69.40
2018-01-06T17:23:41.076Z,69.40
2018-01-06T17:26:08.698Z,69.50
2018-01-06T17:28:37.020Z,69.70
2018-01-06T17:31:04.605Z,69.80
2018-01-06T17:33:32.974Z,70.10
2018-01-06T17:36:00.517Z,70.10
2018-01-06T17:38:28.050Z,70.10
2018-01-06T17:40:55.587Z,69.50
2018-01-06T17:43:23.597Z,69.40
2018-01-06T17:45:52.360Z,69.50
2018-01-06T17:48:20.839Z,69.40
2018-01-06T17:50:49.134Z,69.20
2018-01-06T17:53:16.657Z,69.10
2018-01-06T17:55:44.682Z,69.30
2018-01-06T17:58:12.235Z,69.50
2018-01-06T18:00:40.565Z,69.80
2018-01-06T18:03:08.383Z,69.70
2018-01-06T18:05:36.665Z,69.80
2018-01-06T18:08:04.200Z,69.70
2018-01-06T18:10:31.772Z,69.80
2018-01-06T18:13:00.547Z,69.70
2018-01-06T18:15:28.054Z,69.50
2018-01-06T18:17:55.638Z,69.70
2018-01-06T18:20:23.186Z,69.60
2018-01-06T18:22:51.589Z,69.80
2018-01-06T18:25:19.078Z,69.70
2018-01-06T18:27:46.591Z,69.80
2018-01-06T18:30:14.092Z,70.10
2018-01-06T18:32:41.583Z,69.90
2018-01-06T18:35:09.224Z,70.20
2018-01-06T18:37:36.742Z,70.50
2018-01-06T18:40:05.020Z,70.90
2018-01-06T18:42:33.638Z,71.00
2018-01-06T18:45:01.998Z,70.90
2018-01-06T18:47:29.577Z,71.00
2018-01-06T18:49:57.066Z,71.00
2018-01-06T18:52:24.624Z,70.70
2018-01-06T18:54:52.134Z,70.60
2018-01-06T18:57:21.177Z,70.40
2018-01-06T18:59:49.530Z,70.40
2018-01-06T19:02:17.923Z,70.70
2018-01-06T19:04:45.466Z,70.70
2018-01-06T19:07:13.846Z,71.90
2018-01-06T19:09:42.193Z,71.50
2018-01-06T19:12:09.710Z,71.50
2018-01-06T19:14:38.033Z,71.80
2018-01-06T19:17:05.578Z,71.80
2018-01-06T19:19:33.089Z,72.00
2018-01-06T19:22:02.125Z,72.90
2018-01-06T19:24:30.821Z,73.40
2018-01-06T19:26:58.772Z,73.30
2018-01-06T19:29:27.067Z,73.70
2018-01-06T19:31:55.338Z,73.70
2018-01-06T19:34:24.371Z,74.00
2018-01-06T19:36:51.909Z,73.90
2018-01-06T19:39:19.417Z,74.00
2018-01-06T19:41:46.939Z,74.00
2018-01-06T19:44:14.465Z,74.10
2018-01-06T19:46:41.964Z,74.00
2018-01-06T19:49:10.245Z,74.10
2018-01-06T19:51:37.766Z,74.10
2018-01-06T19:54:05.278Z,74.90
2018-01-06T19:56:32.787Z,74.40
2018-01-06T19:59:01.109Z,74.50
2018-01-06T20:01:29.373Z,74.90
2018-01-06T20:03:57.660Z,75.00
2018-01-06T20:06:25.991Z,75.10
2018-01-06T20:08:53.493Z,75.00
2018-01-06T20:11:21.821Z,75.30
2018-01-06T20:13:49.350Z,75.40
2018-01-06T20:16:17.649Z,75.80
2018-01-06T20:18:45.965Z,75.90
2018-01-06T20:21:13.480Z,75.80
2018-01-06T20:23:42.538Z,75.80
2018-01-06T20:26:10.050Z,75.80
2018-01-06T20:28:38.335Z,75.70
2018-01-06T20:31:06.618Z,75.40
2018-01-06T20:33:34.133Z,75.40
2018-01-06T20:36:02.181Z,75.40
2018-01-06T20:38:29.723Z,75.20
2018-01-06T20:40:57.269Z,74.90
2018-01-06T20:43:24.774Z,74.70
2018-01-06T20:45:52.848Z,74.70
2018-01-06T20:48:20.358Z,74.60
2018-01-06T20:50:48.642Z,74.30
2018-01-06T20:53:16.937Z,74.20
2018-01-06T20:55:45.216Z,74.50
2018-01-06T20:58:13.508Z,74.70
2018-01-06T21:00:42.117Z,74.50
2018-01-06T21:03:09.677Z,74.50
2018-01-06T21:05:37.829Z,74.30
2018-01-06T21:08:05.339Z,74.10
2018-01-06T21:10:32.834Z,74.00
2018-01-06T21:13:00.434Z,74.40
2018-01-06T21:15:29.036Z,74.30
2018-01-06T21:17:56.553Z,74.30
2018-01-06T21:20:24.413Z,74.30
2018-01-06T21:22:51.934Z,74.50
2018-01-06T21:25:19.494Z,74.40
2018-01-06T21:27:47.032Z,74.80
2018-01-06T21:30:14.647Z,74.60
2018-01-06T21:32:42.231Z,74.80
2018-01-06T21:35:09.848Z,75.10
2018-01-06T21:37:38.363Z,75.30
2018-01-06T21:40:05.946Z,75.40
2018-01-06T21:42:33.558Z,75.30
2018-01-06T21:45:02.645Z,76.00
2018-01-06T21:49:59.276Z,76.00
2018-01-06T21:52:26.798Z,76.10
2018-01-06T21:54:54.349Z,76.30
2018-01-06T21:57:23.099Z,76.10
2018-01-06T21:59:51.608Z,76.10
2018-01-06T22:02:19.920Z,76.20
2018-01-06T22:04:47.420Z,76.10
2018-01-06T22:07:14.946Z,75.90
2018-01-06T22:09:42.498Z,76.20
2018-01-06T22:12:10.939Z,76.40
2018-01-06T22:14:39.132Z,76.40
2018-01-06T22:17:07.143Z,76.50
2018-01-06T22:19:34.662Z,76.10
2018-01-06T22:22:02.192Z,76.20
2018-01-06T22:24:29.700Z,76.50
2018-01-06T22:26:57.238Z,76.70
2018-01-06T22:29:24.778Z,76.90
2018-01-06T22:31:53.173Z,77.10
2018-01-06T22:34:20.710Z,77.10
2018-01-06T22:36:48.261Z,77.50
2018-01-06T22:39:16.547Z,77.70
2018-01-06T22:41:44.808Z,77.50
2018-01-06T22:44:12.387Z,77.40
2018-01-06T22:46:40.823Z,77.60
2018-01-06T22:49:08.882Z,77.60
2018-01-06T22:51:36.803Z,77.30
2018-01-06T22:54:04.371Z,76.90
2018-01-06T22:56:32.244Z,77.40
2018-01-06T22:58:59.804Z,77.60
2018-01-06T23:01:27.338Z,76.90
2018-01-06T23:03:54.888Z,76.40
2018-01-06T23:06:22.766Z,76.70
2018-01-06T23:08:50.278Z,76.70
2018-01-06T23:11:18.891Z,75.90
2018-01-06T23:13:47.423Z,75.60
2018-01-06T23:16:14.947Z,75.50
2018-01-06T23:18:42.924Z,75.10
2018-01-06T23:21:10.452Z,73.90
2018-01-06T23:23:38.723Z,73.90
2018-01-06T23:26:07.092Z,73.80
2018-01-06T23:28:35.360Z,73.50
2018-01-06T23:31:02.995Z,73.70
2018-01-06T23:33:31.437Z,73.90
2018-01-06T23:36:00.522Z,72.70
2018-01-06T23:38:28.371Z,72.70
2018-01-06T23:40:57.278Z,72.10
2018-01-06T23:43:24.793Z,72.00
2018-01-06T23:45:52.352Z,71.40
2018-01-06T23:48:20.088Z,71.20
2018-01-06T23:50:48.738Z,70.50
2018-01-06T23:53:17.187Z,70.50
2018-01-06T23:55:44.677Z,70.20
2018-01-06T23:58:12.261Z,70.30
